AirNav   GEt a FREE Bose Revolve Bluetooth Speaker
 
 769 users online  

42VA Virginia Beach Airport
Virginia Beach, Virginia, USA

GOING TO VIRGINIA BEACH?


FAA INFORMATION EFFECTIVE 06 DECEMBER 2018

Location

FAA Identifier: 42VA
Lat/Long: 36-40-44.0550N / 076-01-57.9950W
36-40.734250N / 076-01.966583W
36.6789042 / -76.0327764
(estimated)
Elevation: 15 ft. / 5 m (estimated)
Variation: 10W (1990)
From city: 4 miles SE of VIRGINIA BEACH, VA
Time zone: UTC -5 (UTC -4 during Daylight Saving Time)
Zip code: 23457

Airport Operations

Airport use: Private use. Permission required prior to landing
Activation date: 04/1993
Control tower: no
ARTCC: WASHINGTON CENTER
FSS: LEESBURG FLIGHT SERVICE STATION
Attendance: UNATNDD
Wind indicator: yes
Segmented circle: no

Airport Communications

WX ASOS at NTU (9 nm N): PHONE DSN 433-3619 or 757-433-3619
WX AWOS-3 at CPK (14 nm W): 123.675 (757-204-4290)
WX ASOS at ORF (15 nm NW): PHONE 757-460-9348
WX AWOS-3 at ONX (17 nm S): 119.775 (252-453-8939)

Nearby radio navigation aids

VOR radial/distance  VOR name  Freq  Var
ORFr155/15.1NORFOLK VORTAC116.9007W
ECGr022/26.2ELIZABETH CITY VOR/DME112.5007W

 
NDB name  Hdg/Dist  Freq  Var  ID
INGLE142/14.332909WOR --- .-.
WOODVILLE037/28.025410WLLW .-.. .-.. .--

Airport Services

Runway Information

Runway 11/29

Dimensions: 4845 x 190 ft. / 1477 x 58 m
Surface: turf, in good condition
RUNWAY 11  RUNWAY 29
Latitude: 36-40.824167N36-40.644333N
Longitude: 076-02.449500W076-01.483667W
Elevation: 10.0 ft.9.0 ft.
Traffic pattern: leftleft

Airport Ownership and Management from official FAA records

Ownership: Privately-owned
Owner: VIRGINIA BEACH ARPT, LLC
4455 SOUTH BLVD
VIRGINIA BEACH, VA 23452
Phone 757-490-3157
Manager: GERALD YAGEN
4455 SOUTH BLVD
VIRGINIA BEACH, VA 23452
Phone 757-490-3157
EXTENSION 500.

Airport Operational Statistics

Aircraft based on the field: 54
Single engine airplanes: 50
Multi engine airplanes: 4
    

Additional Remarks

AWOS - PHONE 757-204-2683, FREQUENCY 119.925

Instrument Procedures

There are no published instrument procedures at 42VA.

Some nearby airports with instrument procedures:

KNTU - Oceana Naval Air Station (Apollo Soucek Field) (9 nm N)
KCPK - Chesapeake Regional Airport (14 nm W)
KORF - Norfolk International Airport (15 nm NW)
KONX - Currituck County Regional Airport (17 nm S)
KNGU - Norfolk Naval Station (Chambers Field) (20 nm NW)
 
Loc | Ops | Rwys | IFR | FBO | Links
Com | Nav | Svcs | Stats | Notes


 
Area around 42VA (Virginia Beach Airport)
 
Road maps at: MapQuest Bing Google
 
Aerial photo
WARNING: Photo may not be current or correct
Aerial photo of 42VA (Virginia Beach Airport)
Photo by Jerry Yagen
Photo taken 10-Nov-2012
looking east.

Do you have a better or more recent aerial photo of Virginia Beach Airport that you would like to share? If so, please send us your photo.

 
Sectional chart

 
Airport distance calculator
Flying to Virginia Beach Airport? Find the distance to fly.

From to 42VA

Sunrise and sunset
Times for 15-Dec-2018
 Local
(UTC-5)
 Zulu
(UTC)
Morning civil twilight06:4111:41
Sunrise07:1012:10
Sunset16:4821:48
Evening civil twilight17:1722:17

Current date and time
Zulu (UTC)  16-Dec-2018 00:22:01
Local (UTC-5)  15-Dec-2018 19:22:01
 
METAR
KNFE 
5nm W 
152356Z AUTO 15003KT 1 1/2SM -RA BR OVC003 18/17 A2989 RMK AO2 RAB46 SLP124 P0001 60002 T01780172 10206 20178 53004
KNTU 
8nm N 
152356Z 18005KT 1/2SM -RA FG OVC002 16/16 A2990 RMK AO2 RAB56 SLP127 P0000 60002 T01560156 10189 20156 53004 $
KCPK 
14nm W 
152355Z AUTO 00000KT 2 1/2SM RA BKN006 BKN010 OVC013 15/15 A2990 RMK AO2 P0005 60005 T01520146 10186 20152
KORF 
16nm NW 
152351Z 00000KT 2 1/2SM -RA BR FEW002 BKN010 OVC015 12/12 A2990 RMK AO2 RAB06 SLP123 P0004 60004 T01170117 10194 20117 50005
KONX 
17nm S 
152340Z AUTO 4SM BR BKN002 OVC010 16/16 A2988 RMK AO2 T01560156
KNGU 
18nm NW 
152359Z 06003KT 1 3/4SM -RA BR FEW003 SCT011 OVC018 12/12 A2992 RMK AO2 RAB53 SLP130 P0002 60005 T01170117 10156 20106 53006
TAF
KNTU 
8nm N 
1523/1623 07008KT 6000 -SHRA SCT010 BKN020 OVC030 QNH2987INS TEMPO 1523/1601 0800 FG SCT005 BKN010 OVC025 BECMG 1602/1604 VRB06KT 9000 BR FEW020 BKN040 QNH2987INS TEMPO 1604/1610 6000 -RA BR SCT005 SCT015 OVC035 BECMG 1615/1617 28010KT 9999 FEW020 BKN040 QNH2989INS T13/1610Z T18/1619Z FN00199
KORF 
16nm NW 
151738Z 1518/1618 26007KT 5SM -RA BKN006 OVC050 FM152000 02006KT 3SM -RA BR OVC005 FM160300 22004KT 5SM BR OVC004 FM160900 20004KT 1 1/2SM BR OVC003 FM161300 21006KT 4SM BR OVC003 FM161500 22008KT P6SM OVC007
KNGU 
18nm NW 
1523/1623 05010KT 6000 -SHRA BKN003 OVC011 QNH2989INS TEMPO 1523/1601 4800 SHRA SCT005 BKN010 OVC025 BECMG 1602/1604 VRB06KT 9000 BR FEW020 BKN040 QNH2987INS TEMPO 1604/1610 6000 -RA BR SCT005 SCT015 OVC035 BECMG 1615/1617 28010KT 9999 FEW020 BKN040 QNH2989INS T12/1610Z T16/1619Z FN00199
NOTAMs
Click for the latest NOTAMs
NOTAMs are issued by the DoD/FAA and will open in a separate window not controlled by AirNav.

 

 
 

Would you like to see your business listed on this page?

 If your business provides an interesting product or service to pilots, flight crews, aircraft, or users of the Virginia Beach Airport, you should consider listing it here.  To start the listing process, click on the button below
 
Add a business
 

Other Pages about Virginia Beach Airport

www.vbairport.com
Military Aviation Museum
www.fighterfactory.com
 
Update a link
 
Copyright © AirNav, LLC. All rights reserved. Privacy Policy  Contact